METAR Data
IDs: Format: Raw Decoded Include TAF

Data at: 0057 UTC 29 Nov 2020

METAR for:KCAV (Clarion Muni, IA, US)
Text:KCAV 290055Z AUTO 18008KT 10SM CLR 02/02 A2996 RMK A01
Temperature: 2.0°C ( 36°F)
Dewpoint: 2.0°C ( 36°F) [RH = 100%]
Pressure (altimeter):29.96 inches Hg (1014.6 mb)
Winds:from the S (180 degrees) at 9 MPH (8 knots; 4.1 m/s)
Visibility:10 or more sm (16+ km)
Ceiling:at least 12,000 feet AGL
Clouds:sky clear below 12,000 feet AGL
QC Flag:automated observation with no human augmentation